الصفحة الرئيسية
METAR-TAF:

METAR-TAF

مطار :

مطار بالما دي مايوركا

بالما دي مايوركا, إسبانيا

دائرة عرض: 39-33N, خط طول: 002-44E, ارتفاع: 4 متر

مراقبة الطقس الحالي

تاريخ ووقت الإصدار 19 دقيقة قبل الساعة 16:00UTC
ريح 18 عقدة من الشمال الغربي تتزايد حتى 31 عقدة, الاتجاه يتراوح بين الغرب/الشمال الغربي و الشمال
درجة الحرارة 14°درجة مئوية
الرطوبة 58%
ضغط 996 hPa
الرؤية 10 كم أو أكثر
غيوم قليلة على ارتفاع 2000 قدم

METAR: LEPA 231600Z 31018G31KT 290V350 9999 FEW020 14/06 Q0996 NOSIG

زمن: 17:19 (16:19 UTC)

توقعات

تاريخ ووقت الإصدار 5ساعات و 19 دقيقة قبل الساعة 11:00UTC
التوقعات صالحة من23 الساعة 12 UTC إلى 24 الساعة 12 UTC
ريح 20 عقدة من الشمال الغربي
الرؤية 10 كم أو أكثر
غيوم متفرقة على ارتفاع 2500 قدم
غيوم مفككة على ارتفاع 5000 قدم
مؤقت
من 23 الساعة 12 UTC إلى 23 الساعة 14 UTC
ريح 10 عقدة من الغرب
مؤقت
من 23 الساعة 12 UTC إلى 24 الساعة 12 UTC
ريح 20 عقدة من الشمال الغربي تتزايد حتى 37 عقدة

TAF: LEPA 231100Z 2312/2412 32020KT 9999 SCT025 BKN050 TX14/2314Z TN06/2406Z TEMPO 2312/2314 26010KT TEMPO 2312/2412 32020G37KT

أرصاد الطقس والتوقعات من أكثر من 4000 مطار (تقارير الطقس للمطار METAR والتنبؤ بالطقس بالمطارTAF).

المحطات المتاحة هي النقط الصفراء والحمراء على الخريطة.

حرك المؤشر فوق النقطة لمعرفة اسم المحطة.

ثم انقر لمعرفة أرصاد وتوقعات الطقس.

لتغيير الخارطة: اضغط على الأزرار الخضراء مع رمز الصليب الأسود للتكبير. على الزر الأخضر مع شرطة للتصغير، أو على الأسهم الخضراء للخرائط المجاورة.


METAR-TAF: